createdAt,value
2022-08-24T00:00:04.272Z,39.7940
2022-08-24T00:00:15.315Z,39.7790
2022-08-24T00:00:26.438Z,39.7880
2022-08-24T00:00:37.968Z,39.7880
2022-08-24T00:00:49.165Z,39.7800
2022-08-24T00:01:00.230Z,39.7800
2022-08-24T00:01:11.350Z,39.7660
2022-08-24T00:01:22.536Z,39.7580
2022-08-24T00:01:33.589Z,39.7470
2022-08-24T00:01:44.868Z,39.7610
2022-08-24T00:01:56.253Z,39.7660
2022-08-24T00:02:07.615Z,39.7660
2022-08-24T00:02:23.152Z,39.9590
2022-08-24T00:02:34.588Z,39.8850
2022-08-24T00:02:45.768Z,39.8520
2022-08-24T00:02:56.960Z,39.8230
2022-08-24T00:03:08.217Z,39.8110
2022-08-24T00:03:19.516Z,39.7850
2022-08-24T00:03:34.857Z,39.8030
2022-08-24T00:03:46.144Z,39.9680
2022-08-24T00:03:57.351Z,39.8760
2022-08-24T00:04:08.454Z,39.8200
2022-08-24T00:04:23.431Z,39.9470
2022-08-24T00:04:35.272Z,39.9030
2022-08-24T00:04:46.762Z,39.8380
2022-08-24T00:05:00.542Z,39.9750
2022-08-24T00:05:14.742Z,39.9120
2022-08-24T00:05:26.143Z,40.0210
2022-08-24T00:05:37.312Z,39.9210
2022-08-24T00:05:48.483Z,39.8860
2022-08-24T00:05:59.540Z,39.8830
2022-08-24T00:06:10.710Z,39.8710
2022-08-24T00:06:21.767Z,39.8710
2022-08-24T00:06:32.961Z,39.8770
2022-08-24T00:06:44.036Z,39.8790
2022-08-24T00:06:55.090Z,39.8860
2022-08-24T00:07:06.217Z,39.8860
2022-08-24T00:07:27.530Z,40.0920
2022-08-24T00:07:40.199Z,40.1850
2022-08-24T00:07:51.343Z,40.0700
2022-08-24T00:08:02.660Z,39.9830
2022-08-24T00:08:13.833Z,39.9660
2022-08-24T00:08:24.997Z,39.9190
2022-08-24T00:08:36.051Z,39.9330
2022-08-24T00:08:47.125Z,39.9270
2022-08-24T00:08:58.179Z,39.9210
2022-08-24T00:09:09.507Z,39.9210
2022-08-24T00:09:20.705Z,39.9270
2022-08-24T00:09:31.753Z,39.9210
2022-08-24T00:09:42.793Z,39.9270
2022-08-24T00:09:59.753Z,40.1350
2022-08-24T00:10:10.958Z,40.0730
2022-08-24T00:10:22.099Z,39.9900
2022-08-24T00:10:33.139Z,39.9830
2022-08-24T00:10:44.357Z,39.9660
2022-08-24T00:10:55.513Z,39.9660
2022-08-24T00:11:06.560Z,39.9660
2022-08-24T00:11:17.710Z,39.9690
2022-08-24T00:11:28.777Z,39.9630
2022-08-24T00:11:39.911Z,39.9660
2022-08-24T00:11:50.975Z,39.9830
2022-08-24T00:12:02.049Z,39.9830
2022-08-24T00:12:13.253Z,40.0020
2022-08-24T00:12:26.169Z,40.0960
2022-08-24T00:12:37.288Z,40.0460
2022-08-24T00:12:48.418Z,40.0230
2022-08-24T00:12:59.459Z,40.0370
2022-08-24T00:13:10.566Z,40.0250
2022-08-24T00:13:21.605Z,40.0080
2022-08-24T00:13:32.653Z,40.0140
2022-08-24T00:13:48.384Z,40.2080
2022-08-24T00:13:59.425Z,40.0910
2022-08-24T00:14:10.708Z,40.0420
2022-08-24T00:14:21.791Z,40.0210
2022-08-24T00:14:32.857Z,40.0040
2022-08-24T00:14:43.921Z,39.9920
2022-08-24T00:14:55.216Z,39.9870
2022-08-24T00:15:06.251Z,39.9940
2022-08-24T00:15:17.381Z,39.9710
2022-08-24T00:15:28.458Z,39.9830
2022-08-24T00:15:39.673Z,39.9770
2022-08-24T00:15:50.762Z,39.9830
2022-08-24T00:16:01.956Z,39.9880
2022-08-24T00:16:13.116Z,39.9770
2022-08-24T00:16:24.188Z,39.9830
2022-08-24T00:16:35.292Z,39.9860
2022-08-24T00:16:46.546Z,39.9830
2022-08-24T00:16:57.911Z,39.9980
2022-08-24T00:17:09.007Z,40.0070
2022-08-24T00:17:20.057Z,40.0010
2022-08-24T00:17:31.128Z,39.9940
2022-08-24T00:17:42.244Z,39.9830
2022-08-24T00:17:53.457Z,39.9940
2022-08-24T00:18:04.725Z,40.0010
2022-08-24T00:18:15.980Z,40.0210
2022-08-24T00:18:27.032Z,39.9980
2022-08-24T00:18:38.094Z,40.0210
2022-08-24T00:18:49.237Z,40.0210
2022-08-24T00:19:00.290Z,40.0400
2022-08-24T00:19:11.505Z,40.0340
2022-08-24T00:19:22.561Z,40.0460
2022-08-24T00:19:33.684Z,40.0460
2022-08-24T00:19:44.867Z,40.0340
2022-08-24T00:19:56.067Z,40.0400
2022-08-24T00:20:07.286Z,40.0460
2022-08-24T00:20:18.661Z,40.0630
2022-08-24T00:20:29.724Z,40.0690
2022-08-24T00:20:44.642Z,40.0520
2022-08-24T00:20:56.329Z,40.2390
2022-08-24T00:21:07.569Z,40.1560
2022-08-24T00:21:18.626Z,40.1290
2022-08-24T00:21:29.682Z,40.1180
2022-08-24T00:21:40.745Z,40.1180
2022-08-24T00:21:51.919Z,40.1290
2022-08-24T00:22:03.085Z,40.1460
2022-08-24T00:22:14.150Z,40.1410
2022-08-24T00:22:25.218Z,40.1180
2022-08-24T00:22:36.261Z,40.1390
2022-08-24T00:22:47.333Z,40.1500
2022-08-24T00:22:59.090Z,40.1850
2022-08-24T00:23:10.328Z,40.1720
2022-08-24T00:23:21.389Z,40.1660
2022-08-24T00:23:32.622Z,40.1790
2022-08-24T00:23:43.669Z,40.2010
2022-08-24T00:23:54.860Z,40.1890
2022-08-24T00:24:05.893Z,40.2050
2022-08-24T00:24:16.959Z,40.2220
2022-08-24T00:24:28.099Z,40.2100
2022-08-24T00:24:39.143Z,40.2220
2022-08-24T00:24:50.211Z,40.2160
2022-08-24T00:25:01.289Z,40.2010
2022-08-24T00:25:12.330Z,40.1950
2022-08-24T00:25:23.482Z,40.1890
2022-08-24T00:25:34.527Z,40.1950
2022-08-24T00:25:45.575Z,40.2010
2022-08-24T00:25:56.710Z,40.1770
2022-08-24T00:26:07.802Z,40.1890
2022-08-24T00:26:19.309Z,40.1720
2022-08-24T00:26:35.848Z,40.4090
2022-08-24T00:26:46.893Z,40.3220
2022-08-24T00:26:57.971Z,40.2690
2022-08-24T00:27:09.021Z,40.2430
2022-08-24T00:27:20.243Z,40.2120
2022-08-24T00:27:31.431Z,40.2120
2022-08-24T00:27:42.641Z,40.2180
2022-08-24T00:27:53.843Z,40.2070
2022-08-24T00:28:05.173Z,40.2010
2022-08-24T00:28:16.401Z,40.2120
2022-08-24T00:28:27.460Z,40.2160
2022-08-24T00:28:38.518Z,40.2100
2022-08-24T00:28:49.585Z,40.2160
2022-08-24T00:29:03.172Z,40.2220
2022-08-24T00:29:17.691Z,40.4300
2022-08-24T00:29:28.936Z,40.3470
2022-08-24T00:29:40.123Z,40.2880
2022-08-24T00:29:51.337Z,40.2650
2022-08-24T00:30:02.380Z,40.2340
2022-08-24T00:30:13.433Z,40.2220
2022-08-24T00:30:24.608Z,40.2220
2022-08-24T00:30:35.823Z,40.2240
2022-08-24T00:30:46.962Z,40.2240
2022-08-24T00:30:58.013Z,40.2180
2022-08-24T00:31:09.083Z,40.1830
2022-08-24T00:31:20.414Z,40.1830
2022-08-24T00:31:31.454Z,40.2010
2022-08-24T00:31:42.604Z,40.1770
2022-08-24T00:31:53.777Z,40.1920
2022-08-24T00:32:04.957Z,40.2100
2022-08-24T00:32:16.097Z,40.2170
2022-08-24T00:32:29.268Z,40.3470
2022-08-24T00:32:40.441Z,40.3050
2022-08-24T00:32:52.006Z,40.3080
2022-08-24T00:33:03.059Z,40.3250
2022-08-24T00:33:14.300Z,40.2700
2022-08-24T00:33:25.480Z,40.2700
2022-08-24T00:33:36.688Z,40.2700
2022-08-24T00:33:47.888Z,40.2880
2022-08-24T00:33:59.088Z,40.2650
2022-08-24T00:34:10.152Z,40.2570
2022-08-24T00:34:21.362Z,40.2280
2022-08-24T00:34:32.403Z,40.2390
2022-08-24T00:34:45.896Z,40.2340
2022-08-24T00:35:00.409Z,40.4300
2022-08-24T00:35:11.833Z,40.3420
2022-08-24T00:35:22.961Z,40.2940
2022-08-24T00:35:34.022Z,40.2460
2022-08-24T00:35:45.166Z,40.2280
2022-08-24T00:35:56.411Z,40.2340
2022-08-24T00:36:07.470Z,40.2340
2022-08-24T00:36:18.630Z,40.2160
2022-08-24T00:36:29.715Z,40.2050
2022-08-24T00:36:40.771Z,40.1860
2022-08-24T00:36:51.835Z,40.1920
2022-08-24T00:37:02.892Z,40.2160
2022-08-24T00:37:14.159Z,40.2400
2022-08-24T00:37:25.229Z,40.2400
2022-08-24T00:37:36.324Z,40.2340
2022-08-24T00:37:47.379Z,40.2280
2022-08-24T00:37:58.423Z,40.2050
2022-08-24T00:38:09.618Z,40.1990
2022-08-24T00:38:20.650Z,40.2110
2022-08-24T00:38:31.701Z,40.1920
2022-08-24T00:38:42.810Z,40.1990
2022-08-24T00:38:54.025Z,40.1860
2022-08-24T00:39:05.245Z,40.2050
2022-08-24T00:39:16.288Z,40.1990
2022-08-24T00:39:27.356Z,40.1990
2022-08-24T00:39:38.421Z,40.2170
2022-08-24T00:39:50.226Z,40.2280
2022-08-24T00:40:01.312Z,40.2220
2022-08-24T00:40:12.605Z,40.2340
2022-08-24T00:40:23.748Z,40.2600
2022-08-24T00:40:34.867Z,40.2280
2022-08-24T00:40:45.937Z,40.2170
2022-08-24T00:40:56.998Z,40.2140
2022-08-24T00:41:08.048Z,40.2310
2022-08-24T00:41:19.118Z,40.2310
2022-08-24T00:41:30.282Z,40.2310
2022-08-24T00:41:41.486Z,40.2540
2022-08-24T00:41:52.755Z,40.2470
2022-08-24T00:42:03.952Z,40.2640
2022-08-24T00:42:15.088Z,40.2700
2022-08-24T00:42:26.282Z,40.2640
2022-08-24T00:42:37.346Z,40.2800
2022-08-24T00:42:48.417Z,40.2910
2022-08-24T00:42:59.563Z,40.2850
2022-08-24T00:43:10.765Z,40.2910
2022-08-24T00:43:21.898Z,40.2970
2022-08-24T00:43:32.941Z,40.2910
2022-08-24T00:43:44.155Z,40.2760
2022-08-24T00:43:55.198Z,40.2810
2022-08-24T00:44:06.393Z,40.2760
2022-08-24T00:44:17.509Z,40.2810
2022-08-24T00:44:28.732Z,40.2810
2022-08-24T00:44:39.798Z,40.2700
2022-08-24T00:44:50.944Z,40.2490
2022-08-24T00:45:02.089Z,40.2540
2022-08-24T00:45:13.157Z,40.2310
2022-08-24T00:45:24.538Z,40.2140
2022-08-24T00:45:35.742Z,40.2520
2022-08-24T00:45:46.921Z,40.2580
2022-08-24T00:45:58.127Z,40.2520
2022-08-24T00:46:09.353Z,40.2160
2022-08-24T00:46:20.650Z,40.2280
2022-08-24T00:46:31.833Z,40.2370
2022-08-24T00:46:44.344Z,40.3260
2022-08-24T00:46:55.495Z,40.2970
2022-08-24T00:47:06.698Z,40.2850
2022-08-24T00:47:17.918Z,40.2850
2022-08-24T00:47:29.036Z,40.2800
2022-08-24T00:47:40.238Z,40.2800
2022-08-24T00:47:51.444Z,40.2740
2022-08-24T00:48:02.855Z,40.2870
2022-08-24T00:48:14.176Z,40.3030
2022-08-24T00:48:25.315Z,40.2800
2022-08-24T00:48:36.374Z,40.2740
2022-08-24T00:48:47.470Z,40.2490
2022-08-24T00:48:58.567Z,40.2970
2022-08-24T00:49:09.627Z,40.3090
2022-08-24T00:49:20.692Z,40.2910
2022-08-24T00:49:31.754Z,40.2680
2022-08-24T00:49:42.907Z,40.2490
2022-08-24T00:49:54.177Z,40.2490
2022-08-24T00:50:05.249Z,40.2600
2022-08-24T00:50:17.383Z,40.3030
2022-08-24T00:50:28.433Z,40.2850
2022-08-24T00:50:39.493Z,40.2680
2022-08-24T00:50:50.633Z,40.2800
2022-08-24T00:51:01.803Z,40.2800
2022-08-24T00:51:13.046Z,40.2550
2022-08-24T00:51:24.265Z,40.2600
2022-08-24T00:51:35.434Z,40.2550
2022-08-24T00:51:48.928Z,40.3800
2022-08-24T00:52:00.699Z,40.3260
2022-08-24T00:52:14.848Z,40.4280
2022-08-24T00:52:25.959Z,40.3400
2022-08-24T00:52:37.016Z,40.3090
2022-08-24T00:52:48.064Z,40.2740
2022-08-24T00:52:59.159Z,40.2800
2022-08-24T00:53:10.206Z,40.2970
2022-08-24T00:53:21.263Z,40.2850
2022-08-24T00:53:32.314Z,40.2550
2022-08-24T00:53:43.399Z,40.2490
2022-08-24T00:53:54.527Z,40.2370
2022-08-24T00:54:05.719Z,40.2550
2022-08-24T00:54:16.926Z,40.2490
2022-08-24T00:54:28.126Z,40.2600
2022-08-24T00:54:45.915Z,40.2490
2022-08-24T00:54:56.287Z,40.4390
2022-08-24T00:55:07.365Z,40.3800
2022-08-24T00:55:18.497Z,40.2970
2022-08-24T00:55:29.552Z,40.2600
2022-08-24T00:55:40.617Z,40.2490
2022-08-24T00:55:51.898Z,40.2310
2022-08-24T00:56:03.003Z,40.2550
2022-08-24T00:56:14.187Z,40.2200
2022-08-24T00:56:25.434Z,40.1910
2022-08-24T00:56:36.568Z,40.2140
2022-08-24T00:56:47.697Z,40.2140
2022-08-24T00:56:58.767Z,40.2140
2022-08-24T00:57:09.804Z,40.2080
2022-08-24T00:57:20.950Z,40.2310
2022-08-24T00:57:32.000Z,40.2310
2022-08-24T00:57:43.054Z,40.2260
2022-08-24T00:57:54.185Z,40.2140
2022-08-24T00:58:05.477Z,40.2310
2022-08-24T00:58:17.809Z,40.2970
2022-08-24T00:58:31.877Z,40.3980
2022-08-24T00:58:43.057Z,40.2910
2022-08-24T00:58:57.134Z,40.2680
2022-08-24T00:59:08.388Z,40.4030
2022-08-24T00:59:19.528Z,40.3090
2022-08-24T00:59:30.760Z,40.2680
2022-08-24T00:59:43.919Z,40.3400
2022-08-24T00:59:55.116Z,40.2740
2022-08-24T01:00:06.327Z,40.2310
2022-08-24T01:00:17.390Z,40.2140
2022-08-24T01:00:28.464Z,40.2200
2022-08-24T01:00:39.542Z,40.2200
2022-08-24T01:00:50.660Z,40.2150
2022-08-24T01:01:01.800Z,40.2150
2022-08-24T01:01:12.935Z,40.2200
2022-08-24T01:01:24.004Z,40.2200
2022-08-24T01:01:35.193Z,40.2200
2022-08-24T01:01:47.481Z,40.2260
2022-08-24T01:01:59.192Z,40.3240
2022-08-24T01:02:16.204Z,40.4960
2022-08-24T01:02:27.575Z,40.4340
2022-08-24T01:02:38.723Z,40.3810
2022-08-24T01:02:49.897Z,40.3400
2022-08-24T01:03:00.943Z,40.3630
2022-08-24T01:03:12.119Z,40.3520
2022-08-24T01:03:23.340Z,40.3340
2022-08-24T01:03:34.516Z,40.3280
2022-08-24T01:03:45.741Z,40.3150
2022-08-24T01:03:57.280Z,40.3150
2022-08-24T01:04:08.387Z,40.3280
2022-08-24T01:04:19.586Z,40.3340
2022-08-24T01:04:30.653Z,40.3400
2022-08-24T01:04:41.804Z,40.3150
2022-08-24T01:04:52.866Z,40.3150
2022-08-24T01:05:04.066Z,40.2980
2022-08-24T01:05:15.114Z,40.3030
2022-08-24T01:05:26.156Z,40.3030
2022-08-24T01:05:37.346Z,40.3090
2022-08-24T01:05:48.484Z,40.3030
2022-08-24T01:05:59.546Z,40.2920
2022-08-24T01:06:10.671Z,40.2820
2022-08-24T01:06:21.715Z,40.2760
2022-08-24T01:06:32.783Z,40.2590
2022-08-24T01:06:43.874Z,40.2420
2022-08-24T01:06:55.002Z,40.2300
2022-08-24T01:07:06.069Z,40.2110
2022-08-24T01:07:17.211Z,40.1990
2022-08-24T01:07:28.285Z,40.2050
2022-08-24T01:07:39.331Z,40.2360
2022-08-24T01:07:50.399Z,40.2380
2022-08-24T01:08:01.662Z,40.2380
2022-08-24T01:08:12.744Z,40.2380
2022-08-24T01:08:23.902Z,40.2440
2022-08-24T01:08:35.117Z,40.2690
2022-08-24T01:08:46.291Z,40.2630
2022-08-24T01:09:03.261Z,40.5060
2022-08-24T01:09:14.474Z,40.4270
2022-08-24T01:09:28.266Z,40.4850
2022-08-24T01:09:40.070Z,40.4140
2022-08-24T01:09:51.270Z,40.3520
2022-08-24T01:10:02.335Z,40.3230
2022-08-24T01:10:13.389Z,40.3230
2022-08-24T01:10:24.448Z,40.3040
2022-08-24T01:10:35.530Z,40.3040
2022-08-24T01:10:46.599Z,40.3100
2022-08-24T01:10:57.644Z,40.3100
2022-08-24T01:11:08.768Z,40.3100
2022-08-24T01:11:19.893Z,40.3100
2022-08-24T01:11:33.983Z,40.3160
2022-08-24T01:11:45.257Z,40.4580
2022-08-24T01:11:56.288Z,40.3690
2022-08-24T01:12:07.334Z,40.3400
2022-08-24T01:12:18.384Z,40.3520
2022-08-24T01:12:29.591Z,40.3460
2022-08-24T01:12:40.670Z,40.3340
2022-08-24T01:12:59.792Z,40.3400
2022-08-24T01:13:08.967Z,40.5480
2022-08-24T01:13:20.037Z,40.4770
2022-08-24T01:13:31.130Z,40.3870
2022-08-24T01:13:42.162Z,40.3290
2022-08-24T01:13:53.298Z,40.3230
2022-08-24T01:14:04.364Z,40.3460
2022-08-24T01:14:15.548Z,40.3290
2022-08-24T01:14:26.689Z,40.3310
2022-08-24T01:14:37.951Z,40.3190
2022-08-24T01:14:49.161Z,40.3360
2022-08-24T01:15:00.300Z,40.3360
2022-08-24T01:15:11.508Z,40.3250
2022-08-24T01:15:22.696Z,40.3080
2022-08-24T01:15:33.897Z,40.3280
2022-08-24T01:15:45.100Z,40.3280
2022-08-24T01:15:56.333Z,40.3210
2022-08-24T01:16:07.415Z,40.3340
2022-08-24T01:16:18.509Z,40.3280
2022-08-24T01:16:29.637Z,40.3420
2022-08-24T01:16:40.858Z,40.3310
2022-08-24T01:16:51.972Z,40.3520
2022-08-24T01:17:03.015Z,40.3640
2022-08-24T01:17:14.074Z,40.3080
2022-08-24T01:17:25.133Z,40.2900
2022-08-24T01:17:39.066Z,40.3030
2022-08-24T01:17:51.651Z,40.4850
2022-08-24T01:18:02.901Z,40.3540
2022-08-24T01:18:14.230Z,40.3250
2022-08-24T01:18:25.294Z,40.3090
2022-08-24T01:18:37.388Z,40.3090
2022-08-24T01:18:48.448Z,40.3540
2022-08-24T01:19:00.608Z,40.3730
2022-08-24T01:19:11.675Z,40.3280
2022-08-24T01:19:22.719Z,40.2980
2022-08-24T01:19:33.905Z,40.2800
2022-08-24T01:19:45.106Z,40.2800
2022-08-24T01:19:56.327Z,40.3090
2022-08-24T01:20:07.399Z,40.2920
2022-08-24T01:20:18.466Z,40.2800
2022-08-24T01:20:29.682Z,40.2920
2022-08-24T01:20:40.744Z,40.2980
2022-08-24T01:20:51.918Z,40.2920
2022-08-24T01:21:02.972Z,40.3080
2022-08-24T01:21:14.047Z,40.3080
2022-08-24T01:21:25.140Z,40.3100
2022-08-24T01:21:36.409Z,40.2980
2022-08-24T01:21:47.464Z,40.3040
2022-08-24T01:21:58.569Z,40.2870
2022-08-24T01:22:09.620Z,40.2770
2022-08-24T01:22:20.700Z,40.2900
2022-08-24T01:22:31.811Z,40.2650
2022-08-24T01:22:43.004Z,40.2600
2022-08-24T01:22:54.136Z,40.2440
2022-08-24T01:23:05.352Z,40.2320
2022-08-24T01:23:16.530Z,40.2320
2022-08-24T01:23:27.571Z,40.2090
2022-08-24T01:23:44.559Z,40.4020
2022-08-24T01:23:55.761Z,40.3460
2022-08-24T01:24:06.974Z,40.2810
2022-08-24T01:24:18.014Z,40.2390
2022-08-24T01:24:29.063Z,40.2250
2022-08-24T01:24:40.196Z,40.2310
2022-08-24T01:24:51.383Z,40.2250
2022-08-24T01:25:02.583Z,40.2420
2022-08-24T01:25:13.783Z,40.2250
2022-08-24T01:25:25.033Z,40.2250
2022-08-24T01:25:36.494Z,40.2130
2022-08-24T01:25:49.369Z,40.3080
2022-08-24T01:26:01.856Z,40.3080
2022-08-24T01:26:14.328Z,40.2960
2022-08-24T01:26:27.791Z,40.3530
2022-08-24T01:26:39.085Z,40.2750
2022-08-24T01:26:50.324Z,40.2540
2022-08-24T01:27:01.560Z,40.2540
2022-08-24T01:27:12.693Z,40.2600
2022-08-24T01:27:26.690Z,40.2540
2022-08-24T01:27:39.464Z,40.4300
2022-08-24T01:27:50.866Z,40.3340
2022-08-24T01:28:03.655Z,40.2750
2022-08-24T01:28:16.551Z,40.4110
2022-08-24T01:28:30.856Z,40.4330
2022-08-24T01:28:43.683Z,40.3980
2022-08-24T01:28:55.849Z,40.3330
2022-08-24T01:29:08.339Z,40.3590
2022-08-24T01:29:20.500Z,40.3530
2022-08-24T01:29:34.899Z,40.4230
2022-08-24T01:29:45.964Z,40.3210
2022-08-24T01:29:58.091Z,40.3230
2022-08-24T01:30:09.136Z,40.2510
2022-08-24T01:30:21.950Z,40.2690
2022-08-24T01:30:38.321Z,40.4360
2022-08-24T01:30:50.200Z,40.3850
2022-08-24T01:31:01.302Z,40.3000
2022-08-24T01:31:12.415Z,40.2630
2022-08-24T01:31:23.491Z,40.2460
2022-08-24T01:31:34.762Z,40.2220
2022-08-24T01:31:46.092Z,40.2130
2022-08-24T01:31:57.910Z,40.2600
2022-08-24T01:32:08.988Z,40.2510
2022-08-24T01:32:20.031Z,40.2540
2022-08-24T01:32:31.164Z,40.2370
2022-08-24T01:32:42.359Z,40.2250
2022-08-24T01:32:53.560Z,40.2220
2022-08-24T01:33:04.760Z,40.2510
2022-08-24T01:33:15.960Z,40.2880
2022-08-24T01:33:27.160Z,40.2940
2022-08-24T01:33:38.403Z,40.2820
2022-08-24T01:33:49.615Z,40.2570
2022-08-24T01:34:00.670Z,40.2690
2022-08-24T01:34:11.746Z,40.2880
2022-08-24T01:34:22.790Z,40.2570
2022-08-24T01:34:33.844Z,40.2510
2022-08-24T01:34:44.880Z,40.2540
2022-08-24T01:34:55.922Z,40.2420
2022-08-24T01:35:07.194Z,40.2310
2022-08-24T01:35:18.301Z,40.2480
2022-08-24T01:35:29.364Z,40.2710
2022-08-24T01:35:40.452Z,40.2660
2022-08-24T01:35:51.519Z,40.2660
2022-08-24T01:36:02.613Z,40.2880
2022-08-24T01:36:13.814Z,40.2940
2022-08-24T01:36:28.392Z,40.3280
2022-08-24T01:36:39.795Z,40.4870
2022-08-24T01:36:50.837Z,40.3790
2022-08-24T01:37:01.923Z,40.3560
2022-08-24T01:37:13.071Z,40.3440
2022-08-24T01:37:24.242Z,40.3440
2022-08-24T01:37:35.296Z,40.3330
2022-08-24T01:37:46.512Z,40.3610
2022-08-24T01:37:57.553Z,40.3670
2022-08-24T01:38:08.700Z,40.3610
2022-08-24T01:38:19.734Z,40.3790
2022-08-24T01:38:30.829Z,40.3500
2022-08-24T01:38:41.966Z,40.3210
2022-08-24T01:38:53.086Z,40.3330
2022-08-24T01:39:04.145Z,40.3270
2022-08-24T01:39:15.249Z,40.3080
2022-08-24T01:39:26.409Z,40.3150
2022-08-24T01:39:37.466Z,40.3210
2022-08-24T01:39:48.551Z,40.3330
2022-08-24T01:39:59.652Z,40.3210
2022-08-24T01:40:10.779Z,40.3150
2022-08-24T01:40:22.171Z,40.3290
2022-08-24T01:40:33.235Z,40.3540
2022-08-24T01:40:44.562Z,40.3480
2022-08-24T01:40:55.688Z,40.3650
2022-08-24T01:41:06.728Z,40.3600
2022-08-24T01:41:18.415Z,40.3880
2022-08-24T01:41:29.632Z,40.3830
2022-08-24T01:41:40.773Z,40.3940
2022-08-24T01:41:51.836Z,40.3600
2022-08-24T01:42:02.922Z,40.3410
2022-08-24T01:42:14.135Z,40.3230
2022-08-24T01:42:25.214Z,40.3150
2022-08-24T01:42:36.296Z,40.3210
2022-08-24T01:42:47.409Z,40.3120
2022-08-24T01:42:58.589Z,40.3230
2022-08-24T01:43:09.784Z,40.3120
2022-08-24T01:43:20.842Z,40.3290
2022-08-24T01:43:31.898Z,40.3330
2022-08-24T01:43:48.827Z,40.5680
2022-08-24T01:44:00.028Z,40.4580
2022-08-24T01:44:11.082Z,40.3990
2022-08-24T01:44:22.137Z,40.3720
2022-08-24T01:44:33.309Z,40.3720
2022-08-24T01:44:44.336Z,40.3600
2022-08-24T01:44:55.409Z,40.3180
2022-08-24T01:45:06.610Z,40.3150
2022-08-24T01:45:17.708Z,40.3270
2022-08-24T01:45:28.913Z,40.3230
2022-08-24T01:45:40.114Z,40.3290
2022-08-24T01:45:51.318Z,40.3290
2022-08-24T01:46:02.530Z,40.3510
2022-08-24T01:46:13.603Z,40.3750
2022-08-24T01:46:24.703Z,40.3950
2022-08-24T01:46:35.886Z,40.3950
2022-08-24T01:46:46.935Z,40.4370
2022-08-24T01:46:58.042Z,40.4320
2022-08-24T01:47:09.051Z,40.4430
2022-08-24T01:47:20.139Z,40.4380
2022-08-24T01:47:31.215Z,40.4380
2022-08-24T01:47:42.322Z,40.4430
2022-08-24T01:47:53.520Z,40.4320
2022-08-24T01:48:04.878Z,40.4370
2022-08-24T01:48:19.945Z,40.4430
2022-08-24T01:48:32.897Z,40.6210
2022-08-24T01:48:44.103Z,40.5200
2022-08-24T01:48:55.169Z,40.4550
2022-08-24T01:49:06.287Z,40.4220
2022-08-24T01:49:17.347Z,40.4050
2022-08-24T01:49:28.398Z,40.3990
2022-08-24T01:49:39.535Z,40.4050
2022-08-24T01:49:50.609Z,40.4160
2022-08-24T01:50:01.670Z,40.4160
2022-08-24T01:50:12.716Z,40.3930
2022-08-24T01:50:23.766Z,40.3890
2022-08-24T01:50:34.876Z,40.3720
2022-08-24T01:50:46.077Z,40.3600
2022-08-24T01:50:57.222Z,40.3830
2022-08-24T01:51:08.282Z,40.3680
2022-08-24T01:51:19.401Z,40.3620
2022-08-24T01:51:30.518Z,40.3480
2022-08-24T01:51:41.653Z,40.3410
2022-08-24T01:51:52.757Z,40.3330
2022-08-24T01:52:03.957Z,40.3440
2022-08-24T01:52:14.997Z,40.3610
2022-08-24T01:52:29.722Z,40.3440
2022-08-24T01:53:03.982Z,40.5460
2022-08-24T01:53:07.287Z,40.6470
2022-08-24T01:53:17.369Z,40.7130
2022-08-24T01:53:28.501Z,40.6070
2022-08-24T01:53:39.619Z,40.5430
2022-08-24T01:53:50.802Z,40.5160
2022-08-24T01:54:02.002Z,40.5050
2022-08-24T01:54:13.119Z,40.4930
2022-08-24T01:54:24.161Z,40.4780
2022-08-24T01:54:35.212Z,40.4830
2022-08-24T01:54:46.367Z,40.4830
2022-08-24T01:54:57.504Z,40.4720
2022-08-24T01:55:08.547Z,40.4970
2022-08-24T01:55:22.684Z,40.5020
2022-08-24T01:55:34.008Z,40.6470
2022-08-24T01:55:45.198Z,40.5640
2022-08-24T01:55:56.379Z,40.5300
2022-08-24T01:56:07.438Z,40.5310
2022-08-24T01:56:18.706Z,40.5200
2022-08-24T01:56:29.757Z,40.5430
2022-08-24T01:56:42.358Z,40.6070
2022-08-24T01:56:53.537Z,40.5590
2022-08-24T01:57:05.106Z,40.5740
2022-08-24T01:57:17.258Z,40.5680
2022-08-24T01:57:28.369Z,40.5370
2022-08-24T01:57:39.418Z,40.5370
2022-08-24T01:57:50.485Z,40.5260
2022-08-24T01:58:01.619Z,40.5260
2022-08-24T01:58:12.661Z,40.5200
2022-08-24T01:58:23.699Z,40.5020
2022-08-24T01:58:34.916Z,40.4970
2022-08-24T01:58:46.077Z,40.5020
2022-08-24T01:58:57.157Z,40.5260
2022-08-24T01:59:08.401Z,40.5310
2022-08-24T01:59:19.595Z,40.5370
2022-08-24T01:59:30.633Z,40.5200
2022-08-24T01:59:41.833Z,40.5080
2022-08-24T01:59:52.873Z,40.5310
2022-08-24T02:00:03.977Z,40.5080
2022-08-24T02:00:15.132Z,40.4910
2022-08-24T02:00:26.317Z,40.5020
2022-08-24T02:00:37.463Z,40.5200
2022-08-24T02:00:48.807Z,40.5140
2022-08-24T02:00:59.859Z,40.5200
2022-08-24T02:01:10.958Z,40.5020
2022-08-24T02:01:22.055Z,40.4970
2022-08-24T02:01:33.276Z,40.4830
2022-08-24T02:01:44.370Z,40.4660
2022-08-24T02:01:55.461Z,40.4480
2022-08-24T02:02:06.635Z,40.4600
2022-08-24T02:02:17.738Z,40.4720
2022-08-24T02:02:28.865Z,40.4990
2022-08-24T02:02:40.066Z,40.5160
2022-08-24T02:02:51.272Z,40.5240
2022-08-24T02:03:02.672Z,40.5430
2022-08-24T02:03:14.107Z,40.5620
2022-08-24T02:03:29.684Z,40.5620
2022-08-24T02:03:42.334Z,40.7520
2022-08-24T02:03:54.066Z,40.7110
2022-08-24T02:04:05.224Z,40.6340
2022-08-24T02:04:17.683Z,40.5860
2022-08-24T02:04:29.930Z,40.6750
2022-08-24T02:04:41.068Z,40.6210
2022-08-24T02:04:55.372Z,40.7400
2022-08-24T02:05:06.419Z,40.6400
2022-08-24T02:05:17.459Z,40.5920
2022-08-24T02:05:28.555Z,40.5680
2022-08-24T02:05:39.754Z,40.5550
2022-08-24T02:05:50.938Z,40.5430
2022-08-24T02:06:01.995Z,40.5680
2022-08-24T02:06:13.205Z,40.5690
2022-08-24T02:06:24.317Z,40.5740
2022-08-24T02:06:35.516Z,40.5980
2022-08-24T02:06:46.723Z,40.6040
2022-08-24T02:06:57.930Z,40.6040
2022-08-24T02:07:09.116Z,40.5920
2022-08-24T02:07:20.216Z,40.5920
2022-08-24T02:07:31.354Z,40.5920
2022-08-24T02:07:42.885Z,40.5990
2022-08-24T02:07:53.968Z,40.6450
2022-08-24T02:08:05.015Z,40.6340
2022-08-24T02:08:16.240Z,40.6220
2022-08-24T02:08:27.330Z,40.6160
2022-08-24T02:08:38.363Z,40.5980
2022-08-24T02:08:49.501Z,40.5800
2022-08-24T02:09:00.718Z,40.5800
2022-08-24T02:09:11.773Z,40.6090
2022-08-24T02:09:22.831Z,40.6150
2022-08-24T02:09:36.660Z,40.7400
2022-08-24T02:09:47.950Z,40.6630
2022-08-24T02:09:59.037Z,40.6280
2022-08-24T02:10:10.085Z,40.5860
2022-08-24T02:10:21.224Z,40.5690
2022-08-24T02:10:32.283Z,40.5680
2022-08-24T02:10:48.682Z,40.5550
2022-08-24T02:11:00.332Z,40.7520
2022-08-24T02:11:11.382Z,40.6810
2022-08-24T02:11:22.490Z,40.6260
2022-08-24T02:11:33.542Z,40.6210
2022-08-24T02:11:44.609Z,40.6210
2022-08-24T02:11:55.683Z,40.6040
2022-08-24T02:12:06.821Z,40.6150
2022-08-24T02:12:17.879Z,40.6090
2022-08-24T02:12:29.000Z,40.6090
2022-08-24T02:12:40.268Z,40.5970
2022-08-24T02:12:51.356Z,40.5820
2022-08-24T02:13:02.555Z,40.5700
2022-08-24T02:13:13.707Z,40.5590
2022-08-24T02:13:26.186Z,40.6010
2022-08-24T02:13:37.316Z,40.5590
2022-08-24T02:13:48.397Z,40.5760
2022-08-24T02:13:59.975Z,40.6210
2022-08-24T02:14:13.432Z,40.6750
2022-08-24T02:14:25.935Z,40.7400
2022-08-24T02:14:42.128Z,40.8470
2022-08-24T02:14:53.159Z,40.7290
2022-08-24T02:15:04.358Z,40.6520
2022-08-24T02:15:15.412Z,40.6400
2022-08-24T02:15:26.609Z,40.6150
2022-08-24T02:15:37.795Z,40.6010
2022-08-24T02:15:48.883Z,40.6070
2022-08-24T02:15:59.929Z,40.5820
2022-08-24T02:16:11.204Z,40.5740
2022-08-24T02:16:22.301Z,40.5430
2022-08-24T02:16:33.449Z,40.5310
2022-08-24T02:16:44.561Z,40.5200
2022-08-24T02:16:55.620Z,40.5160
2022-08-24T02:17:06.687Z,40.5350
2022-08-24T02:17:17.739Z,40.5430
2022-08-24T02:17:28.834Z,40.5200
2022-08-24T02:17:40.008Z,40.5200
2022-08-24T02:17:51.191Z,40.5280
2022-08-24T02:18:02.241Z,40.5160
2022-08-24T02:18:15.654Z,40.4930
2022-08-24T02:18:27.124Z,40.5930
2022-08-24T02:18:38.284Z,40.5310